Walker And Dunlop Inc (WD) Latest Bloomsberg Price


Mffais Ranking #1995 Overall / #33 Industry
Industry: Mortgage Finance

Number of Companies: 99 (Ranking #1646 Overall/#19 Industry)
Inflow: $ 12,537 (K) (Ranking #1912 Overall/#24 Industry)
Outflow: $ -28,817 (K)
Mffais Flow: $ -16,279 (K) (Ranking #1995 Overall/#33 Industry)


Receive a FREE weekly executive review of stocks moving into the top 10, taking the top industy spot or moving up within their industry. Sent directly to your Inbox every Saturday. Sign up today and get last week's review immediately sent to you.

We value and respect your privacy. Please read our Terms and Conditions which states our firm commitment to your privacy. Your email address will not be shared with a third party, nor will it be sold or used for purposes other than subscription for the weekly review.

Owner CPOR Shares Action Qty Chg Invested (K) Total Current Value (K)
Chicago Equity Partners Llc 2016-09-30 127,070 New Holding 127,070 $ 3,132 $ 3,132
Bridgeway Capital Management Inc 2016-09-30 77,150 New Holding 77,150 $ 1,901 $ 1,901
Dimensional Fund Advisors Lp 2016-09-30 1,732,691 Added More 60,590 $ 1,493 $ 42,710
Clarivest Asset Management Llc 2016-09-30 152,911 Added More 58,811 $ 1,449 $ 3,769
Royce Associates Lp 2016-09-30 249,946 Added More 37,600 $ 926 $ 6,161
Connor Clark Lunn Investment Management Ltd 2016-09-30 92,100 Added More 32,700 $ 806 $ 2,270
Capital One National Association 2016-09-30 24,077 New Holding 24,077 $ 593 $ 593
Legal General Group Plc 2016-09-30 22,374 Added More 18,902 $ 465 $ 551
Argent Capital Management Llc 2016-09-30 91,125 Added More 15,025 $ 370 $ 2,246
Talkot Capital Llc 2016-09-30 310,000 Added More 10,000 $ 246 $ 7,641
Origin Asset Management Llp 2016-09-30 8,749 New Holding 8,749 $ 215 $ 215
Next Financial Group Inc 2016-09-30 9,316 Added More 8,719 $ 214 $ 229
Northern Trust Corp 2016-09-30 313,131 Added More 7,686 $ 189 $ 7,718
Strs Ohio 2016-09-30 5,200 New Holding 5,200 $ 128 $ 128
Stevens Capital Management Lp 2016-09-30 11,965 Added More 2,652 $ 65 $ 294
Kennedy Capital Management Inc 2016-09-30 335,201 Added More 2,596 $ 63 $ 8,262
Rhumbline Advisers 2016-09-30 40,698 Added More 2,170 $ 53 $ 1,003
Nationwide Fund Advisors 2016-09-30 129,678 Added More 1,630 $ 40 $ 3,196
Thrivent Financial For Lutherans 2016-09-30 14,210 Added More 1,130 $ 27 $ 350
Public Sector Pension Investment Board 2016-09-30 19,600 Added More 1,100 $ 27 $ 483
Bessemer Group Inc 2016-09-30 726 New Holding 726 $ 17 $ 17
Blackrock Inc 2016-09-30 8,663 Added More 714 $ 17 $ 213
Comerica Bank 2016-09-30 74,085 Added More 700 $ 17 $ 1,826
California State Teachers Retirement System 2016-09-30 58,325 Added More 600 $ 14 $ 1,437
Oshaughnessy Asset Management Llc 2016-09-30 1,274 Added More 464 $ 11 $ 31
Mason Street Advisors Llc 2016-09-30 5,709 Added More 399 $ 9 $ 140
Texas Permanent School Fund 2016-09-30 21,124 Added More 353 $ 8 $ 520
Tower Research Capital Llc Trc 2016-09-30 541 Added More 348 $ 8 $ 13
Arizona State Retirement System 2016-09-30 14,369 Added More 300 $ 7 $ 354
Zurcher Kantonalbank Zurich Cantonalbank 2016-09-30 883 Added More 216 $ 5 $ 21
Pinebridge Investments L P 2016-09-30 3,525 Added More 182 $ 4 $ 86
American International Group Inc 2016-09-30 20,504 Added More 80 $ 1 $ 505
Nisa Investment Advisors Llc 2016-09-30 8,200 No Change 0 $ 0 $ 202
Quadrant Capital Group Llc 2016-09-30 38 No Change 0 $ 0 $ 0
Dreman Value Management L L C 2016-09-30 88 No Change 0 $ 0 $ 2
Kornitzer Capital Management Inc Ks 2016-09-30 10,000 No Change 0 $ 0 $ 246
Kbc Group Nv 2016-09-30 24,840 No Change 0 $ 0 $ 612
Sonora Investment Management Llc 2016-09-30 600 No Change 0 $ 0 $ 14
Us Bancorp De 2016-09-30 101 No Change 0 $ 0 $ 2
Parkside Financial Bank Trust 2016-09-30 1,706 No Change 0 $ 0 $ 42
Ls Investment Advisors Llc 2016-09-30 943 No Change 0 $ 0 $ 23
Sandy Spring Bank 2016-09-30 760 No Change 0 $ 0 $ 18
Arrowpoint Asset Management Llc 2016-09-30 100,000 No Change 0 $ 0 $ 2,465
State Of Tennessee Treasury Department 2016-09-30 21,507 No Change 0 $ 0 $ 530
Cypress Capital Management Llc Wy 2016-09-30 75 No Change 0 $ 0 $ 1
Teachers Retirement System Of The State Of Kentucky 2016-09-30 10,100 No Change 0 $ 0 $ 248
Capstone Asset Management Co 2016-09-30 15,130 Sold Some -20 $ -0 $ 372
Mufg Americas Holdings Corp 2016-09-30 150 Sold Some -75 $ -1 $ 3
Pnc Financial Services Group Inc 2016-09-30 0 Sold All -168 $ -4 $ 0
New York State Teachers Retirement System 2016-09-30 61,198 Sold Some -200 $ -4 $ 1,508
Advisor Group Inc 2016-09-30 1,070 Sold Some -274 $ -6 $ 26
Livingston Group Asset Management Co Operating As Southport 2016-09-30 0 Sold All -280 $ -6 $ 0
Blackrock Investment Management Llc 2016-09-30 130,408 Sold Some -399 $ -9 $ 3,214
Ifp Advisors Inc 2016-09-30 481 Sold Some -550 $ -13 $ 11
Creative Planning 2016-09-30 0 Sold All -600 $ -14 $ 0
Alps Advisors Inc 2016-09-30 16,333 Sold Some -624 $ -15 $ 402
New Amsterdam Partners Llc Ny 2016-09-30 193,359 Sold Some -731 $ -18 $ 4,766
Maltese Capital Management Llc 2016-09-30 0 Sold All -800 $ -19 $ 0
Walleye Trading Llc 2016-09-30 0 Sold All -800 $ -19 $ 0
Teachers Advisors Inc 2016-09-30 79,487 Sold Some -1,131 $ -27 $ 1,959
Simplex Trading Llc 2016-09-30 0 Sold All -1,140 $ -28 $ 0
Brandywine Global Investment Management Llc 2016-09-30 88,823 Sold Some -1,400 $ -34 $ 2,189
Acrospire Investment Management Llc 2016-09-30 2,859 Sold Some -1,589 $ -39 $ 70
Pacad Investment Ltd 2016-09-30 0 Sold All -1,600 $ -39 $ 0
Swiss National Bank 2016-09-30 46,500 Sold Some -1,700 $ -41 $ 1,146
Envestnet Asset Management Inc 2016-09-30 0 Sold All -2,103 $ -51 $ 0
Cutler Group Lp 2016-09-30 200 Sold Some -2,388 $ -58 $ 4
Edmond De Rothschild Suisse S A 2016-09-30 0 Sold All -2,450 $ -60 $ 0
Edmond De Rothschild Holding S A 2016-09-30 0 Sold All -2,450 $ -60 $ 0
Teacher Retirement System Of Texas 2016-09-30 0 Sold All -3,851 $ -94 $ 0
Livforsakringsbolaget Skandia Omsesidigt 2016-09-30 24,400 Sold Some -5,300 $ -130 $ 601
Panagora Asset Management Inc 2016-09-30 225,919 Sold Some -5,711 $ -140 $ 5,568
Qs Investors Llc 2016-09-30 97,283 Sold Some -9,969 $ -245 $ 2,398
Sg Americas Securities Llc 2016-09-30 0 Sold All -10,222 $ -251 $ 0
Guggenheim Capital Llc 2016-09-30 77,193 Sold Some -10,467 $ -258 $ 1,902
Shufro Rose Co Llc 2016-09-30 427,866 Sold Some -13,000 $ -320 $ 10,546
Tfs Capital Llc 2016-09-30 0 Sold All -13,118 $ -323 $ 0
Parametric Portfolio Associates Llc 2016-09-30 50,640 Sold Some -13,220 $ -325 $ 1,248
Ellington Management Group Llc 2016-09-30 0 Sold All -15,000 $ -369 $ 0
Her Majesty The Queen In Right Of The Province Of Alberta As 2016-09-30 0 Sold All -15,000 $ -369 $ 0
Spot Trading L L C 2016-09-30 0 Sold All -16,029 $ -395 $ 0
Putnam Investments Llc 2016-09-30 181,393 Sold Some -16,848 $ -415 $ 4,471
Menta Capital Llc 2016-09-30 0 Sold All -17,479 $ -430 $ 0
Secor Capital Advisors Lp 2016-09-30 112,150 Sold Some -19,216 $ -473 $ 2,764
Kestrel Investment Management Corp 2016-09-30 196,425 Sold Some -19,300 $ -475 $ 4,841
Cornercap Investment Counsel Inc 2016-09-30 0 Sold All -21,295 $ -524 $ 0
Clinton Group Inc 2016-09-30 0 Sold All -22,743 $ -560 $ 0
Fisher Asset Management Llc 2016-09-30 102,448 Sold Some -23,674 $ -583 $ 2,525
Shinko Asset Management Co Ltd 2016-09-30 101,952 Sold Some -24,170 $ -595 $ 2,513
Old Mutual Global Investors Uk Ltd 2016-09-30 3,249 Sold Some -24,775 $ -610 $ 80
Symphony Asset Management Llc 2016-09-30 0 Sold All -25,311 $ -623 $ 0
Navellier Associates Inc 2016-09-30 0 Sold All -28,258 $ -696 $ 0
Hawk Ridge Capital Management Lp 2016-09-30 0 Sold All -30,000 $ -739 $ 0
Sterling Capital Management Llc 2016-09-30 0 Sold All -35,951 $ -886 $ 0
New York State Common Retirement Fund 2016-09-30 48,085 Sold Some -36,174 $ -891 $ 1,185
Stoneridge Investment Partners Llc 2016-09-30 0 Sold All -53,355 $ -1,315 $ 0
Grantham Mayo Van Otterloo Co Llc 2016-09-30 172,108 Sold Some -135,711 $ -3,345 $ 4,242
Emerald Mutual Fund Advisers Trust 2016-09-30 463,417 Sold Some -136,849 $ -3,373 $ 11,423
Emerald Advisers Inc Pa 2016-09-30 497,044 Sold Some -343,609 $ -8,469 $ 12,252